Time;durP1;ratioP1;P1;durP2;ratioP2;P2;SDS_P1;SDS_P2;PMS_P1;PMS_P2;Temp;Humidity;BMP_temperature;BMP_pressure;BME280_temperature;BME280_humidity;BME280_pressure;Samples;Min_cycle;Max_cycle;Signal;HPM_P1;HPM_P2
2023/07/22 00:01:24;;;;;;;8.18;3.63;;;;;;;;;;6214494;23;20131;-89
2023/07/22 00:03:52;;;;;;;12.32;3.50;;;;;;;;;;6186886;23;20009;-90
2023/07/22 00:06:19;;;;;;;17.17;3.97;;;;;;;;;;6187876;23;20012;-89
2023/07/22 00:08:45;;;;;;;9.18;3.50;;;;;;;;;;6187195;23;20446;-89
2023/07/22 00:11:14;;;;;;;12.55;3.60;;;;;;;;;;6214642;22;20457;-90
2023/07/22 00:13:43;;;;;;;9.63;3.95;;;;;;;;;;6184730;23;20004;-89
2023/07/22 00:16:13;;;;;;;14.40;4.15;;;;;;;;;;6230845;22;20031;-89
2023/07/22 00:18:39;;;;;;;15.95;3.83;;;;;;;;;;6225954;22;20018;-89
2023/07/22 00:21:06;;;;;;;12.30;4.20;;;;;;;;;;6224565;22;20077;-89
2023/07/22 00:23:33;;;;;;;10.35;4.28;;;;;;;;;;6225449;22;20036;-89
2023/07/22 00:25:59;;;;;;;16.25;4.85;;;;;;;;;;6223538;22;20033;-88
2023/07/22 00:28:26;;;;;;;12.07;3.78;;;;;;;;;;6224898;22;20008;-89
2023/07/22 00:30:57;;;;;;;10.68;3.97;;;;;;;;;;6223884;22;20011;-89
2023/07/22 00:33:23;;;;;;;12.57;4.57;;;;;;;;;;6226001;22;20083;-89
2023/07/22 00:35:54;;;;;;;12.55;4.15;;;;;;;;;;6273895;22;20000;-89
2023/07/22 00:38:20;;;;;;;10.00;4.28;;;;;;;;;;6224717;22;20007;-88
2023/07/22 00:40:46;;;;;;;13.32;4.75;;;;;;;;;;6274909;22;20085;-89
2023/07/22 00:43:13;;;;;;;10.90;4.85;;;;;;;;;;6276738;22;20012;-89
2023/07/22 00:45:39;;;;;;;10.38;4.22;;;;;;;;;;6225711;22;20007;-88
2023/07/22 00:48:07;;;;;;;14.40;4.75;;;;;;;;;;6226129;22;20577;-89
2023/07/22 00:50:33;;;;;;;12.85;4.55;;;;;;;;;;6225837;22;20026;-88
2023/07/22 00:53:02;;;;;;;10.23;3.63;;;;;;;;;;6278570;22;20003;-89
2023/07/22 00:55:28;;;;;;;7.90;4.15;;;;;;;;;;6226260;22;20064;-91
2023/07/22 00:57:55;;;;;;;13.85;3.90;;;;;;;;;;6226732;22;20011;-89
2023/07/22 01:00:23;;;;;;;8.20;3.80;;;;;;;;;;6278807;22;20003;-90
2023/07/22 01:02:49;;;;;;;10.13;3.92;;;;;;;;;;6226995;22;20014;-89
2023/07/22 01:05:17;;;;;;;11.70;4.20;;;;;;;;;;6277395;22;20015;-88
2023/07/22 01:07:49;;;;;;;10.52;4.50;;;;;;;;;;6282291;22;20445;-88
2023/07/22 01:10:18;;;;;;;19.42;4.85;;;;;;;;;;6241987;22;20074;-89
2023/07/22 01:12:45;;;;;;;13.35;4.85;;;;;;;;;;6283126;22;20003;-89
2023/07/22 01:15:11;;;;;;;12.18;4.38;;;;;;;;;;6285750;22;20034;-88
2023/07/22 01:17:45;;;;;;;14.63;4.85;;;;;;;;;;6282258;22;20388;-88
2023/07/22 01:20:16;;;;;;;10.93;4.40;;;;;;;;;;6283233;22;20337;-89
2023/07/22 01:22:43;;;;;;;8.10;3.53;;;;;;;;;;6281738;22;20014;-87
2023/07/22 01:25:10;;;;;;;12.65;4.50;;;;;;;;;;6227897;22;20011;-88
2023/07/22 01:27:36;;;;;;;9.10;4.25;;;;;;;;;;6229731;22;20500;-88
2023/07/22 01:30:03;;;;;;;11.63;4.07;;;;;;;;;;6232496;22;20016;-86
2023/07/22 01:32:29;;;;;;;16.88;4.93;;;;;;;;;;6231744;22;20008;-89
2023/07/22 01:34:55;;;;;;;14.82;5.00;;;;;;;;;;6283831;22;20364;-88
2023/07/22 01:37:21;;;;;;;14.98;5.20;;;;;;;;;;6231095;22;20003;-88
2023/07/22 01:39:48;;;;;;;9.57;4.35;;;;;;;;;;6280627;22;20015;-88
2023/07/22 01:42:15;;;;;;;10.88;3.88;;;;;;;;;;6228575;22;20069;-88
2023/07/22 01:44:44;;;;;;;10.20;4.63;;;;;;;;;;6230535;22;20652;-88
2023/07/22 01:47:10;;;;;;;18.00;4.88;;;;;;;;;;6255750;22;20011;-89
2023/07/22 01:49:36;;;;;;;13.65;5.03;;;;;;;;;;6230683;22;20075;-88
2023/07/22 01:52:03;;;;;;;12.13;5.45;;;;;;;;;;6255520;22;20018;-88
2023/07/22 01:54:29;;;;;;;16.13;5.03;;;;;;;;;;6226698;22;20337;-89
2023/07/22 01:56:56;;;;;;;16.10;6.10;;;;;;;;;;6255219;22;20008;-89
2023/07/22 01:59:25;;;;;;;17.30;4.70;;;;;;;;;;6281189;22;20434;-89
2023/07/22 02:01:51;;;;;;;12.38;5.32;;;;;;;;;;6242088;22;20021;-88
2023/07/22 02:04:22;;;;;;;21.20;5.10;;;;;;;;;;6258701;22;20038;-89
2023/07/22 02:06:48;;;;;;;13.48;4.97;;;;;;;;;;6231415;22;20346;-88
2023/07/22 02:09:17;;;;;;;15.43;5.13;;;;;;;;;;6281655;22;20015;-89
2023/07/22 02:11:44;;;;;;;12.15;4.85;;;;;;;;;;6258024;22;20069;-89
2023/07/22 02:14:10;;;;;;;12.35;4.85;;;;;;;;;;6280210;22;20000;-89
2023/07/22 02:16:37;;;;;;;18.75;4.63;;;;;;;;;;6230994;22;20022;-89
2023/07/22 02:19:04;;;;;;;15.40;4.78;;;;;;;;;;6226712;22;20023;-89
2023/07/22 02:21:30;;;;;;;12.00;5.20;;;;;;;;;;6230982;22;20323;-89
2023/07/22 02:23:59;;;;;;;11.38;4.47;;;;;;;;;;6277118;22;20011;-90
2023/07/22 02:26:27;;;;;;;10.93;3.90;;;;;;;;;;6229844;22;20011;-90
2023/07/22 02:28:54;;;;;;;14.18;4.95;;;;;;;;;;6281566;22;20014;-90
2023/07/22 02:31:24;;;;;;;13.65;4.38;;;;;;;;;;6226039;22;20011;-91
2023/07/22 02:33:50;;;;;;;11.98;4.43;;;;;;;;;;6228225;22;20091;-89
2023/07/22 02:36:19;;;;;;;12.55;4.68;;;;;;;;;;6273862;22;20000;-89
2023/07/22 02:38:47;;;;;;;9.90;4.28;;;;;;;;;;6225187;22;20620;-90
2023/07/22 02:41:17;;;;;;;12.23;4.93;;;;;;;;;;6274849;22;20003;-90
2023/07/22 02:43:43;;;;;;;12.60;4.03;;;;;;;;;;6250354;22;20014;-90
2023/07/22 02:46:09;;;;;;;13.85;4.43;;;;;;;;;;6274176;22;20388;-89
2023/07/22 02:48:39;;;;;;;14.13;4.57;;;;;;;;;;6249924;22;20095;-89
2023/07/22 02:51:06;;;;;;;11.75;3.60;;;;;;;;;;6248756;22;20018;-90
2023/07/22 02:53:32;;;;;;;9.60;3.88;;;;;;;;;;6274327;22;20008;-88
2023/07/22 02:56:03;;;;;;;13.73;4.32;;;;;;;;;;6276763;22;20019;-88
2023/07/22 02:58:29;;;;;;;12.32;4.32;;;;;;;;;;6276740;22;20004;-88
2023/07/22 03:00:58;;;;;;;13.55;3.95;;;;;;;;;;6279502;22;20008;-92
2023/07/22 03:03:25;;;;;;;20.23;3.85;;;;;;;;;;6255097;22;20019;-92
2023/07/22 03:05:52;;;;;;;10.18;3.20;;;;;;;;;;6279130;22;20054;-90
2023/07/22 03:08:19;;;;;;;16.80;4.00;;;;;;;;;;6230694;22;20035;-91
2023/07/22 03:10:48;;;;;;;13.15;4.30;;;;;;;;;;6241941;22;20023;-92
2023/07/22 03:13:15;;;;;;;10.73;3.97;;;;;;;;;;6228947;22;20007;-92
2023/07/22 03:15:41;;;;;;;11.07;3.67;;;;;;;;;;6280567;22;20010;-91
2023/07/22 03:18:09;;;;;;;12.27;3.83;;;;;;;;;;6278913;22;20004;-92
2023/07/22 03:20:42;;;;;;;12.02;3.83;;;;;;;;;;6253908;22;20019;-92
2023/07/22 03:23:08;;;;;;;10.35;3.20;;;;;;;;;;6230371;22;20011;-95
2023/07/22 03:25:35;;;;;;;16.35;3.97;;;;;;;;;;6253033;22;20086;-94
2023/07/22 03:28:03;;;;;;;8.13;3.75;;;;;;;;;;6281192;22;20008;-95
2023/07/22 03:30:30;;;;;;;18.17;4.50;;;;;;;;;;6278112;22;20015;-94
2023/07/22 03:32:57;;;;;;;10.52;3.97;;;;;;;;;;6275420;22;20012;-94
2023/07/22 03:35:23;;;;;;;11.35;3.42;;;;;;;;;;6224623;22;20010;-94
2023/07/22 03:37:49;;;;;;;10.80;4.28;;;;;;;;;;6223595;22;20090;-94
2023/07/22 03:40:26;;;;;;;14.68;4.60;;;;;;;;;;6275260;22;20054;-95
2023/07/22 03:43:00;;;;;;;18.00;5.00;;;;;;;;;;6226145;22;20521;-93
2023/07/22 03:45:27;;;;;;;11.65;4.72;;;;;;;;;;6275587;22;20035;-94
2023/07/22 03:48:00;;;;;;;15.63;5.32;;;;;;;;;;6244731;22;20016;-93
2023/07/22 03:50:28;;;;;;;19.15;6.05;;;;;;;;;;6277530;22;20016;-93
2023/07/22 03:52:54;;;;;;;17.50;5.38;;;;;;;;;;6225759;22;20437;-93
2023/07/22 03:55:21;;;;;;;17.35;6.32;;;;;;;;;;6276992;22;20758;-93
2023/07/22 03:57:47;;;;;;;23.52;5.13;;;;;;;;;;6245488;22;20070;-94
2023/07/22 04:00:16;;;;;;;18.88;4.90;;;;;;;;;;6277110;22;20046;-93
2023/07/22 04:02:42;;;;;;;9.10;4.38;;;;;;;;;;6225533;22;20019;-93
2023/07/22 04:05:16;;;;;;;13.57;4.28;;;;;;;;;;6250176;22;20046;-93
2023/07/22 04:07:46;;;;;;;9.82;4.10;;;;;;;;;;6275446;22;20073;-93
2023/07/22 04:10:19;;;;;;;11.48;4.95;;;;;;;;;;6228921;22;20057;-94
2023/07/22 04:12:45;;;;;;;13.15;4.70;;;;;;;;;;6224223;22;20011;-92
2023/07/22 04:15:15;;;;;;;12.20;3.90;;;;;;;;;;6225190;22;20018;-92
2023/07/22 04:17:41;;;;;;;10.88;4.00;;;;;;;;;;6244725;22;20323;-93
2023/07/22 04:20:11;;;;;;;10.68;4.15;;;;;;;;;;6275261;22;20019;-93
2023/07/22 04:22:38;;;;;;;11.63;3.90;;;;;;;;;;6249056;22;20090;-93
2023/07/22 04:25:04;;;;;;;9.90;4.15;;;;;;;;;;6274646;22;20232;-93
2023/07/22 04:27:34;;;;;;;13.20;4.13;;;;;;;;;;6224881;22;20016;-95
2023/07/22 04:30:01;;;;;;;8.55;3.35;;;;;;;;;;6275650;22;20018;-93
2023/07/22 04:32:27;;;;;;;8.27;3.85;;;;;;;;;;6225610;22;20030;-93
2023/07/22 04:34:54;;;;;;;7.70;3.25;;;;;;;;;;6248987;22;20004;-94
2023/07/22 04:37:29;;;;;;;10.02;3.70;;;;;;;;;;6277041;22;20011;-92
2023/07/22 04:39:55;;;;;;;10.43;3.25;;;;;;;;;;6228792;22;20016;-91
2023/07/22 04:42:21;;;;;;;8.60;3.00;;;;;;;;;;6227254;22;20012;-90
2023/07/22 04:44:55;;;;;;;11.27;4.03;;;;;;;;;;6255744;22;20063;-90
2023/07/22 04:47:24;;;;;;;11.80;3.40;;;;;;;;;;6228937;22;20438;-92
2023/07/22 04:49:50;;;;;;;7.75;3.42;;;;;;;;;;6231188;22;20016;-92
2023/07/22 04:52:17;;;;;;;9.38;3.22;;;;;;;;;;6254588;22;20019;-92
2023/07/22 04:54:43;;;;;;;8.23;3.65;;;;;;;;;;6279441;22;20004;-92
2023/07/22 04:57:09;;;;;;;10.48;3.67;;;;;;;;;;6229533;22;20576;-91
2023/07/22 04:59:35;;;;;;;10.32;3.85;;;;;;;;;;6228913;22;20012;-90
2023/07/22 05:02:01;;;;;;;9.35;3.80;;;;;;;;;;6231479;22;20014;-93
2023/07/22 05:04:29;;;;;;;10.48;3.40;;;;;;;;;;6228596;22;20012;-92
2023/07/22 05:06:55;;;;;;;9.85;4.13;;;;;;;;;;6227544;22;20042;-92
2023/07/22 05:09:21;;;;;;;12.40;4.60;;;;;;;;;;6233451;22;20453;-92
2023/07/22 05:11:54;;;;;;;9.90;4.38;;;;;;;;;;6250338;22;20390;-91
2023/07/22 05:14:20;;;;;;;10.27;4.07;;;;;;;;;;6228988;22;20012;-93
2023/07/22 05:16:46;;;;;;;11.93;4.47;;;;;;;;;;6280766;22;20008;-93
2023/07/22 05:19:13;;;;;;;11.10;4.13;;;;;;;;;;6231968;22;20437;-93
2023/07/22 05:21:39;;;;;;;8.70;4.10;;;;;;;;;;6282349;22;20008;-93
2023/07/22 05:24:05;;;;;;;11.02;4.18;;;;;;;;;;6284177;22;20019;-94
2023/07/22 05:26:41;;;;;;;11.85;4.97;;;;;;;;;;6232411;22;20015;-92
2023/07/22 05:29:07;;;;;;;10.77;4.68;;;;;;;;;;6281896;22;20011;-92
2023/07/22 05:31:34;;;;;;;10.85;4.22;;;;;;;;;;6285872;22;20004;-91
2023/07/22 05:34:00;;;;;;;11.18;4.85;;;;;;;;;;6284146;22;20071;-93
2023/07/22 05:36:27;;;;;;;10.75;5.05;;;;;;;;;;6236780;22;20059;-92
2023/07/22 05:38:55;;;;;;;11.93;4.65;;;;;;;;;;6285345;22;19999;-92
2023/07/22 05:41:21;;;;;;;12.10;5.03;;;;;;;;;;6231994;22;20012;-93
2023/07/22 05:43:48;;;;;;;11.77;4.93;;;;;;;;;;6283131;22;20007;-92
2023/07/22 05:46:14;;;;;;;12.05;5.00;;;;;;;;;;6232796;22;20012;-92
2023/07/22 05:48:40;;;;;;;13.75;6.18;;;;;;;;;;6282996;22;20027;-91
2023/07/22 05:51:06;;;;;;;12.75;5.25;;;;;;;;;;6231722;22;20016;-90
2023/07/22 05:53:33;;;;;;;9.48;4.75;;;;;;;;;;6232242;22;20008;-88
2023/07/22 05:56:00;;;;;;;13.90;5.13;;;;;;;;;;6279547;22;20003;-93
2023/07/22 05:58:26;;;;;;;14.45;5.18;;;;;;;;;;6233403;22;20015;-93
2023/07/22 06:01:02;;;;;;;11.05;5.85;;;;;;;;;;6229645;22;20008;-92
2023/07/22 06:03:28;;;;;;;14.27;4.43;;;;;;;;;;6231414;22;20075;-93
2023/07/22 06:05:54;;;;;;;9.80;5.18;;;;;;;;;;6281036;22;20039;-92
2023/07/22 06:08:22;;;;;;;14.07;5.35;;;;;;;;;;6282335;22;20303;-92
2023/07/22 06:10:48;;;;;;;12.60;5.45;;;;;;;;;;6276271;22;20019;-92
2023/07/22 06:13:15;;;;;;;14.15;6.38;;;;;;;;;;6250435;23;20000;-92
2023/07/22 06:15:41;;;;;;;16.75;5.90;;;;;;;;;;6274751;22;20035;-92
2023/07/22 06:18:10;;;;;;;14.18;5.35;;;;;;;;;;6226200;23;20019;-92
2023/07/22 06:20:42;;;;;;;10.15;4.97;;;;;;;;;;6249219;23;20004;-91
2023/07/22 06:23:08;;;;;;;12.75;5.55;;;;;;;;;;6278639;22;20012;-93
2023/07/22 06:25:37;;;;;;;13.02;5.05;;;;;;;;;;6224298;23;20203;-93
2023/07/22 06:28:03;;;;;;;10.13;4.80;;;;;;;;;;6225085;23;20103;-92
2023/07/22 06:30:29;;;;;;;13.38;5.75;;;;;;;;;;6268815;22;20015;-92
2023/07/22 06:32:55;;;;;;;17.27;6.65;;;;;;;;;;6221302;23;20489;-92
2023/07/22 06:35:22;;;;;;;13.57;6.43;;;;;;;;;;6271500;22;20050;-93
2023/07/22 06:37:51;;;;;;;12.98;5.72;;;;;;;;;;6270398;22;20000;-93
2023/07/22 06:40:25;;;;;;;15.32;7.00;;;;;;;;;;6269863;22;20016;-93
2023/07/22 06:42:51;;;;;;;12.93;6.82;;;;;;;;;;6219210;23;20012;-94
2023/07/22 06:45:47;;;;;;;16.13;6.97;;;;;;;;;;6271687;22;20012;-94
2023/07/22 06:48:14;;;;;;;14.02;6.47;;;;;;;;;;6246402;23;20472;-94
2023/07/22 06:50:40;;;;;;;11.80;6.53;;;;;;;;;;6220853;23;20378;-95
2023/07/22 06:53:06;;;;;;;13.93;5.90;;;;;;;;;;6222485;23;20430;-93
2023/07/22 06:55:36;;;;;;;15.90;7.30;;;;;;;;;;6221185;23;20008;-91
2023/07/22 06:58:02;;;;;;;13.82;6.20;;;;;;;;;;6221089;23;20035;-93
2023/07/22 07:00:28;;;;;;;13.20;6.35;;;;;;;;;;6219214;23;20023;-93
2023/07/22 07:02:55;;;;;;;13.15;6.43;;;;;;;;;;6271432;22;20008;-93
2023/07/22 07:05:31;;;;;;;12.63;6.28;;;;;;;;;;6221075;23;20019;-92
2023/07/22 07:07:57;;;;;;;13.98;6.93;;;;;;;;;;6224301;23;20023;-92
2023/07/22 07:10:38;;;;;;;14.60;5.60;;;;;;;;;;6234187;22;20011;-95
2023/07/22 07:13:06;;;;;;;14.80;6.53;;;;;;;;;;6282182;22;20018;-94
2023/07/22 07:15:34;;;;;;;13.80;7.40;;;;;;;;;;6234493;22;20038;-96
2023/07/22 07:21:01;;;;;;;11.52;6.07;;;;;;;;;;6258013;22;20084;-96
2023/07/22 07:23:38;;;;;;;12.60;6.20;;;;;;;;;;6233102;22;20008;-96
2023/07/22 07:26:11;;;;;;;12.70;6.57;;;;;;;;;;6262534;22;20015;-95
2023/07/22 07:28:38;;;;;;;14.02;6.13;;;;;;;;;;6233066;22;20586;-96
2023/07/22 07:31:11;;;;;;;15.35;7.05;;;;;;;;;;6257069;22;20116;-90
2023/07/22 07:33:37;;;;;;;12.98;6.57;;;;;;;;;;6232182;22;20608;-92
2023/07/22 07:36:07;;;;;;;16.45;7.25;;;;;;;;;;6233924;22;20066;-93
2023/07/22 07:38:37;;;;;;;16.45;7.15;;;;;;;;;;6240652;22;19991;-96
2023/07/22 07:41:08;;;;;;;19.10;8.45;;;;;;;;;;6239332;22;20015;-95
2023/07/22 07:43:34;;;;;;;20.38;7.88;;;;;;;;;;6285582;22;20332;-88
2023/07/22 07:46:20;;;;;;;23.65;7.53;;;;;;;;;;6283470;22;20003;-88
2023/07/22 07:49:04;;;;;;;12.48;6.68;;;;;;;;;;6279799;22;20022;-90
2023/07/22 07:51:49;;;;;;;15.07;7.68;;;;;;;;;;6278051;22;20007;-90
2023/07/22 07:54:19;;;;;;;21.42;7.30;;;;;;;;;;6279775;22;20426;-90
2023/07/22 07:56:45;;;;;;;12.82;5.72;;;;;;;;;;6280759;22;20070;-89
2023/07/22 07:59:11;;;;;;;17.13;7.38;;;;;;;;;;6227240;22;20458;-89
2023/07/22 08:01:41;;;;;;;17.25;6.38;;;;;;;;;;6231758;22;20633;-88
2023/07/22 08:04:11;;;;;;;16.73;6.72;;;;;;;;;;6228431;22;20023;-87
2023/07/22 08:06:38;;;;;;;14.63;6.40;;;;;;;;;;6280202;22;20050;-89
2023/07/22 08:09:10;;;;;;;11.57;6.15;;;;;;;;;;6230441;22;20015;-89
2023/07/22 08:11:46;;;;;;;12.13;5.32;;;;;;;;;;6245321;22;20045;-88
2023/07/22 08:14:14;;;;;;;;;;;;;;;;;;6278777;22;20008;-94
2023/07/22 08:16:41;;;;;;;14.70;5.70;;;;;;;;;;6257967;22;20420;-94
2023/07/22 08:19:07;;;;;;;9.30;5.35;;;;;;;;;;6254303;22;20094;-94
2023/07/22 08:21:33;;;;;;;9.85;5.90;;;;;;;;;;6227974;22;20071;-94
2023/07/22 08:24:03;;;;;;;10.13;5.90;;;;;;;;;;6276219;22;20007;-96
2023/07/22 08:26:30;;;;;;;10.13;5.70;;;;;;;;;;6226969;22;20010;-94
2023/07/22 08:28:56;;;;;;;11.48;5.47;;;;;;;;;;6274712;22;20006;-93
2023/07/22 08:31:26;;;;;;;14.15;6.55;;;;;;;;;;6228801;22;20004;-93
2023/07/22 08:33:52;;;;;;;13.63;5.63;;;;;;;;;;6234070;22;20007;-93
2023/07/22 08:39:17;;;;;;;10.43;6.05;;;;;;;;;;6245147;22;20019;-92
2023/07/22 08:42:08;;;;;;;10.85;5.75;;;;;;;;;;6282860;22;20007;-93
2023/07/22 08:44:43;;;;;;;13.93;5.32;;;;;;;;;;6282719;22;20014;-94
2023/07/22 08:47:19;;;;;;;9.83;5.07;;;;;;;;;;6277873;22;20003;-94
2023/07/22 08:49:48;;;;;;;9.95;4.45;;;;;;;;;;6280622;22;20007;-94
2023/07/22 08:55:26;;;;;;;10.30;5.63;;;;;;;;;;6163242;23;20070;-94
2023/07/22 08:57:59;;;;;;;8.07;4.57;;;;;;;;;;6163538;23;20014;-92
2023/07/22 09:00:28;;;;;;;9.93;5.32;;;;;;;;;;6228724;22;20008;-93
2023/07/22 09:03:00;;;;;;;10.10;5.28;;;;;;;;;;6283240;22;20019;-92
2023/07/22 09:05:48;;;;;;;8.07;4.22;;;;;;;;;;6288029;22;20027;-92
2023/07/22 09:08:17;;;;;;;8.02;3.85;;;;;;;;;;6290470;22;20004;-92
2023/07/22 09:10:44;;;;;;;11.82;4.20;;;;;;;;;;6288878;22;20015;-93
2023/07/22 09:13:30;;;;;;;6.90;3.92;;;;;;;;;;6237114;22;20008;-93
2023/07/22 09:16:03;;;;;;;6.72;3.75;;;;;;;;;;6264962;22;20004;-92
2023/07/22 09:18:34;;;;;;;6.78;3.58;;;;;;;;;;6286442;22;20003;-92
2023/07/22 09:21:07;;;;;;;7.15;4.28;;;;;;;;;;6288365;22;20008;-93
2023/07/22 09:23:47;;;;;;;9.05;3.85;;;;;;;;;;6287878;22;20011;-92
2023/07/22 09:26:18;;;;;;;8.85;4.13;;;;;;;;;;6289521;22;20015;-94
2023/07/22 09:29:05;;;;;;;8.90;4.32;;;;;;;;;;6292272;22;20652;-92
2023/07/22 09:32:00;;;;;;;9.88;4.72;;;;;;;;;;6300009;22;20015;-93
2023/07/22 09:34:31;;;;;;;8.93;4.35;;;;;;;;;;6300390;22;20066;-92
2023/07/22 09:37:13;;;;;;;7.28;3.95;;;;;;;;;;6296655;22;20003;-92
2023/07/22 09:39:39;;;;;;;7.70;3.97;;;;;;;;;;6292177;22;20000;-92
2023/07/22 09:42:08;;;;;;;14.35;5.15;;;;;;;;;;6238834;22;20015;-92
2023/07/22 09:44:40;;;;;;;9.10;4.63;;;;;;;;;;6235834;22;20016;-91
2023/07/22 09:47:09;;;;;;;17.98;6.63;;;;;;;;;;6246108;22;20031;-91
2023/07/22 09:49:53;;;;;;;16.90;7.03;;;;;;;;;;6248308;22;20004;-91
2023/07/22 09:55:28;;;;;;;16.30;6.95;;;;;;;;;;6274667;22;20064;-93
2023/07/22 09:57:57;;;;;;;15.50;7.15;;;;;;;;;;6290551;22;20462;-92
2023/07/22 10:00:37;;;;;;;21.63;8.10;;;;;;;;;;6230566;22;20031;-92
2023/07/22 10:03:07;;;;;;;16.35;7.60;;;;;;;;;;6281217;22;20004;-93
2023/07/22 10:05:39;;;;;;;14.35;7.00;;;;;;;;;;6280604;22;20007;-92
2023/07/22 10:08:06;;;;;;;14.88;6.20;;;;;;;;;;6279905;22;20012;-92
2023/07/22 10:10:40;;;;;;;10.77;6.38;;;;;;;;;;6280602;22;20015;-92
2023/07/22 10:13:20;;;;;;;15.63;6.88;;;;;;;;;;6280214;22;20106;-93
2023/07/22 10:16:06;;;;;;;16.50;6.57;;;;;;;;;;6294374;22;20003;-92
2023/07/22 10:18:33;;;;;;;12.75;5.63;;;;;;;;;;6239582;23;20012;-92
2023/07/22 10:21:01;;;;;;;14.93;6.78;;;;;;;;;;6281773;22;20022;-92
2023/07/22 10:23:27;;;;;;;17.67;5.78;;;;;;;;;;6282458;22;20312;-93
2023/07/22 10:26:14;;;;;;;13.63;6.47;;;;;;;;;;6237844;23;20008;-92
2023/07/22 10:28:47;;;;;;;12.32;6.43;;;;;;;;;;6266991;22;20008;-93
2023/07/22 10:34:35;;;;;;;14.55;6.63;;;;;;;;;;6237497;22;20012;-93
2023/07/22 10:37:04;;;;;;;13.32;6.63;;;;;;;;;;6245131;23;20043;-93
2023/07/22 10:39:31;;;;;;;11.95;5.85;;;;;;;;;;6224142;23;20366;-93
2023/07/22 10:42:01;;;;;;;13.57;7.03;;;;;;;;;;6248636;23;20426;-92
2023/07/22 10:44:28;;;;;;;13.20;6.20;;;;;;;;;;6272829;22;20077;-93
2023/07/22 10:47:07;;;;;;;12.63;6.47;;;;;;;;;;6274280;22;20480;-93
2023/07/22 10:49:44;;;;;;;14.38;5.20;;;;;;;;;;6273507;22;20009;-90
2023/07/22 10:52:15;;;;;;;13.48;5.85;;;;;;;;;;6223689;23;20083;-91
2023/07/22 10:54:41;;;;;;;17.60;5.60;;;;;;;;;;6246919;23;20008;-91
2023/07/22 10:57:30;;;;;;;14.32;7.10;;;;;;;;;;6224045;23;20095;-93
2023/07/22 11:00:22;;;;;;;13.45;5.80;;;;;;;;;;6288155;22;20008;-93
2023/07/22 11:03:10;;;;;;;10.73;5.82;;;;;;;;;;6257128;23;20031;-92
2023/07/22 11:06:10;;;;;;;14.40;6.60;;;;;;;;;;6288668;22;20012;-92
2023/07/22 11:08:44;;;;;;;12.50;6.28;;;;;;;;;;6230929;23;20012;-92
2023/07/22 11:11:20;;;;;;;14.77;4.93;;;;;;;;;;6204326;23;20016;-92
2023/07/22 11:13:46;;;;;;;9.70;5.32;;;;;;;;;;6220736;23;20619;-93
2023/07/22 11:16:22;;;;;;;10.63;5.70;;;;;;;;;;6249556;22;20051;-92
2023/07/22 11:18:55;;;;;;;8.25;5.07;;;;;;;;;;6278737;22;20012;-92
2023/07/22 11:21:23;;;;;;;9.93;5.55;;;;;;;;;;6278864;22;20365;-91
2023/07/22 11:23:49;;;;;;;10.15;5.90;;;;;;;;;;6234053;22;20008;-92
2023/07/22 11:26:15;;;;;;;12.23;5.57;;;;;;;;;;6243906;22;20624;-92
2023/07/22 11:28:42;;;;;;;10.25;4.72;;;;;;;;;;6277801;22;20307;-93
2023/07/22 11:31:09;;;;;;;12.63;5.38;;;;;;;;;;6278290;22;20011;-92
2023/07/22 11:33:43;;;;;;;10.63;5.38;;;;;;;;;;6279184;22;20091;-92
2023/07/22 11:36:09;;;;;;;11.43;5.28;;;;;;;;;;6275361;22;20026;-92
2023/07/22 11:38:37;;;;;;;7.32;4.32;;;;;;;;;;6277372;22;20007;-92
2023/07/22 11:41:03;;;;;;;9.05;4.85;;;;;;;;;;6254379;22;20008;-91
2023/07/22 11:43:30;;;;;;;11.25;5.43;;;;;;;;;;6233811;22;20012;-90
2023/07/22 11:46:03;;;;;;;11.63;5.82;;;;;;;;;;6264178;22;20006;-91
2023/07/22 11:48:49;;;;;;;;;;;;;;;;;;;;;
2023/07/22 11:51:43;;;;;;;13.70;7.18;;;;;;;;;;6290887;22;20011;-91
2023/07/22 11:54:22;;;;;;;11.18;6.15;;;;;;;;;;6260129;22;20000;-91
2023/07/22 11:56:50;;;;;;;16.40;8.38;;;;;;;;;;6294332;22;20007;-91
2023/07/22 11:59:17;;;;;;;13.00;7.00;;;;;;;;;;6266433;22;20023;-91
2023/07/22 12:01:53;;;;;;;20.00;8.00;;;;;;;;;;6238136;22;20015;-91
2023/07/22 12:04:24;;;;;;;18.25;9.07;;;;;;;;;;6293613;22;20000;-90
2023/07/22 12:07:12;;;;;;;14.93;7.65;;;;;;;;;;6292575;22;20034;-91
2023/07/22 12:09:52;;;;;;;13.35;6.28;;;;;;;;;;6268639;22;20064;-93
2023/07/22 12:12:19;;;;;;;19.67;7.88;;;;;;;;;;6268612;22;20028;-89
2023/07/22 12:15:28;;;;;;;;;;;;;;;;;;;;;
2023/07/22 12:18:32;;;;;;;15.23;7.45;;;;;;;;;;6291876;22;20445;-91
2023/07/22 12:21:15;;;;;;;15.90;8.52;;;;;;;;;;6269972;22;20023;-90
2023/07/22 12:24:08;;;;;;;;;;;;;;;;;;;;;
2023/07/22 12:26:37;;;;;;;16.92;7.85;;;;;;;;;;6293344;22;20007;-90
2023/07/22 12:29:26;;;;;;;;;;;;;;;;;;;;;
2023/07/22 12:32:13;;;;;;;13.90;7.78;;;;;;;;;;6293659;22;20414;-90
2023/07/22 12:34:54;;;;;;;16.25;9.07;;;;;;;;;;6266997;22;20054;-90
2023/07/22 12:37:45;;;;;;;16.27;8.65;;;;;;;;;;6241024;22;20004;-91
2023/07/22 12:40:47;;;;;;;;;;;;;;;;;;;;;
2023/07/22 12:43:17;;;;;;;17.98;9.02;;;;;;;;;;6294968;22;19998;-90
2023/07/22 12:45:52;;;;;;;13.93;8.70;;;;;;;;;;6242489;22;20012;-89
2023/07/22 12:48:55;;;;;;;17.25;8.90;;;;;;;;;;6291297;22;20007;-91
2023/07/22 12:51:24;;;;;;;17.88;8.82;;;;;;;;;;6260229;22;20022;-91
2023/07/22 12:54:23;;;;;;;19.77;8.90;;;;;;;;;;6240589;22;20015;-89
2023/07/22 12:56:49;;;;;;;14.73;7.80;;;;;;;;;;6266046;22;20007;-89
2023/07/22 12:59:34;;;;;;;19.90;8.77;;;;;;;;;;6242351;22;20008;-90
2023/07/22 13:02:18;;;;;;;;;;;;;;;;;;;;;
2023/07/22 13:04:50;;;;;;;19.40;9.30;;;;;;;;;;6294895;22;20015;-92
2023/07/22 13:07:17;;;;;;;17.25;9.07;;;;;;;;;;6287540;22;20008;-92
2023/07/22 13:10:06;;;;;;;14.60;8.07;;;;;;;;;;6229780;22;20008;-91
2023/07/22 13:12:46;;;;;;;22.13;8.70;;;;;;;;;;6253711;22;20008;-91
2023/07/22 13:15:12;;;;;;;14.57;7.75;;;;;;;;;;6280135;22;20023;-92
2023/07/22 13:17:39;;;;;;;15.48;8.02;;;;;;;;;;6228330;22;20007;-92
2023/07/22 13:20:12;;;;;;;14.52;7.90;;;;;;;;;;6230623;22;20023;-92
2023/07/22 13:22:39;;;;;;;13.15;7.63;;;;;;;;;;6230038;22;20011;-91
2023/07/22 13:25:08;;;;;;;10.75;6.35;;;;;;;;;;6282418;22;20008;-91
2023/07/22 13:27:40;;;;;;;12.57;8.02;;;;;;;;;;6285267;22;20023;-93
2023/07/22 13:30:10;;;;;;;16.25;7.78;;;;;;;;;;6241207;22;20384;-93
2023/07/22 13:32:36;;;;;;;16.73;8.18;;;;;;;;;;6286505;22;19996;-95
2023/07/22 13:35:07;;;;;;;12.63;8.10;;;;;;;;;;6289125;22;20072;-93
2023/07/22 14:19:53;;;;;;;10.38;6.78;;;;;;;;;;6289429;22;20027;-93
2023/07/22 14:22:40;;;;;;;12.50;6.57;;;;;;;;;;6297860;22;20004;-93
2023/07/22 14:25:24;;;;;;;11.05;6.85;;;;;;;;;;6297671;22;20476;-94
2023/07/22 14:30:52;;;;;;;;;;;;;;;;;;6250261;22;20071;-94
2023/07/22 14:33:29;;;;;;;13.85;7.28;;;;;;;;;;6294736;22;19913;-94
2023/07/22 14:35:56;;;;;;;13.90;7.53;;;;;;;;;;6292671;22;20073;-95
2023/07/22 14:38:22;;;;;;;11.55;7.55;;;;;;;;;;6256004;22;20011;-95
2023/07/22 14:40:49;;;;;;;13.18;8.18;;;;;;;;;;6281087;22;20026;-95
2023/07/22 14:43:15;;;;;;;12.63;7.60;;;;;;;;;;6256413;22;20007;-92
2023/07/22 14:45:44;;;;;;;15.93;7.78;;;;;;;;;;6252688;22;20015;-90
2023/07/22 14:48:10;;;;;;;15.48;8.75;;;;;;;;;;6273640;22;20042;-89
2023/07/22 14:50:41;;;;;;;14.25;8.32;;;;;;;;;;6278179;22;20029;-92
2023/07/22 14:53:09;;;;;;;16.52;9.07;;;;;;;;;;6283474;22;20000;-91
2023/07/22 14:55:36;;;;;;;17.95;9.20;;;;;;;;;;6256935;22;19988;-90
2023/07/22 14:58:02;;;;;;;17.15;9.15;;;;;;;;;;6276128;22;20051;-93
2023/07/22 15:00:29;;;;;;;16.35;9.02;;;;;;;;;;6249282;22;20061;-93
2023/07/22 15:02:55;;;;;;;14.95;9.07;;;;;;;;;;6255275;22;20007;-92
2023/07/22 15:05:21;;;;;;;14.70;9.38;;;;;;;;;;6255457;22;20011;-93
2023/07/22 15:07:48;;;;;;;21.27;9.50;;;;;;;;;;6279128;22;20429;-94
2023/07/22 15:10:18;;;;;;;18.73;9.68;;;;;;;;;;6289408;22;20014;-93
2023/07/22 15:12:44;;;;;;;16.50;8.27;;;;;;;;;;6282344;22;20004;-94
2023/07/22 15:15:11;;;;;;;15.23;8.63;;;;;;;;;;6259216;22;20008;-95
2023/07/22 15:17:47;;;;;;;15.77;8.55;;;;;;;;;;6285579;22;20011;-94
2023/07/22 15:20:25;;;;;;;15.10;7.75;;;;;;;;;;6261600;22;20027;-94
2023/07/22 15:22:51;;;;;;;11.70;6.95;;;;;;;;;;6281610;22;20024;-93
2023/07/22 15:25:26;;;;;;;12.98;5.55;;;;;;;;;;6278692;22;20011;-94
2023/07/22 15:27:52;;;;;;;10.43;4.28;;;;;;;;;;6258868;22;20011;-94
2023/07/22 15:30:19;;;;;;;8.05;4.40;;;;;;;;;;6278640;22;20003;-94
2023/07/22 15:32:46;;;;;;;14.52;5.47;;;;;;;;;;6252724;22;20027;-93
2023/07/22 15:35:13;;;;;;;11.07;4.22;;;;;;;;;;6253038;22;20012;-94
2023/07/22 15:37:42;;;;;;;13.45;4.80;;;;;;;;;;6253096;22;20011;-93
2023/07/22 15:40:09;;;;;;;11.35;4.95;;;;;;;;;;6262548;22;20010;-95
2023/07/22 15:42:35;;;;;;;8.13;3.63;;;;;;;;;;6284093;22;20008;-92
2023/07/22 15:45:02;;;;;;;5.20;2.85;;;;;;;;;;6259340;22;20012;-92
2023/07/22 15:47:28;;;;;;;8.48;3.92;;;;;;;;;;6251694;22;20019;-93
2023/07/22 15:49:55;;;;;;;12.63;3.88;;;;;;;;;;6251152;22;20030;-94
2023/07/22 15:52:21;;;;;;;14.15;4.22;;;;;;;;;;6249707;22;20165;-95
2023/07/22 15:54:47;;;;;;;5.25;2.13;;;;;;;;;;6277302;22;20000;-93
2023/07/22 15:57:13;;;;;;;8.50;3.42;;;;;;;;;;6251462;22;20457;-93
2023/07/22 15:59:44;;;;;;;10.18;4.40;;;;;;;;;;6277418;22;20011;-91